sensor_id;sensor_type;location;lat;lon;timestamp;P1;durP1;ratioP1;P2;durP2;ratioP2
4434;SDS011;46552;52.150;8.428;2023-07-24T00:01:39;8.97;;;5.53;;
4434;SDS011;46552;52.150;8.428;2023-07-24T00:04:07;11.17;;;6.87;;
4434;SDS011;46552;52.150;8.428;2023-07-24T00:06:34;9.00;;;6.20;;
4434;SDS011;46552;52.150;8.428;2023-07-24T00:09:01;8.93;;;6.13;;
4434;SDS011;46552;52.150;8.428;2023-07-24T00:11:30;9.30;;;6.40;;
4434;SDS011;46552;52.150;8.428;2023-07-24T00:13:57;8.80;;;6.47;;
4434;SDS011;46552;52.150;8.428;2023-07-24T00:16:24;12.77;;;6.67;;
4434;SDS011;46552;52.150;8.428;2023-07-24T00:18:51;13.53;;;7.60;;
4434;SDS011;46552;52.150;8.428;2023-07-24T00:21:19;16.77;;;6.87;;
4434;SDS011;46552;52.150;8.428;2023-07-24T00:23:46;13.37;;;7.67;;
4434;SDS011;46552;52.150;8.428;2023-07-24T00:26:14;12.07;;;7.33;;
4434;SDS011;46552;52.150;8.428;2023-07-24T00:28:42;10.57;;;7.10;;
4434;SDS011;46552;52.150;8.428;2023-07-24T00:31:10;13.17;;;8.70;;
4434;SDS011;46552;52.150;8.428;2023-07-24T00:33:37;11.53;;;7.20;;
4434;SDS011;46552;52.150;8.428;2023-07-24T00:36:04;16.53;;;7.90;;
4434;SDS011;46552;52.150;8.428;2023-07-24T00:38:33;11.07;;;7.80;;
4434;SDS011;46552;52.150;8.428;2023-07-24T00:41:00;12.63;;;7.83;;
4434;SDS011;46552;52.150;8.428;2023-07-24T00:43:27;12.37;;;8.83;;
4434;SDS011;46552;52.150;8.428;2023-07-24T00:45:56;13.77;;;9.03;;
4434;SDS011;46552;52.150;8.428;2023-07-24T00:48:24;14.50;;;8.03;;
4434;SDS011;46552;52.150;8.428;2023-07-24T00:50:51;9.83;;;7.00;;
4434;SDS011;46552;52.150;8.428;2023-07-24T00:53:18;13.83;;;7.10;;
4434;SDS011;46552;52.150;8.428;2023-07-24T00:55:46;11.07;;;7.77;;
4434;SDS011;46552;52.150;8.428;2023-07-24T00:58:14;11.87;;;7.13;;
4434;SDS011;46552;52.150;8.428;2023-07-24T01:00:44;11.60;;;7.50;;
4434;SDS011;46552;52.150;8.428;2023-07-24T01:03:14;14.20;;;7.17;;
4434;SDS011;46552;52.150;8.428;2023-07-24T01:05:41;11.50;;;7.40;;
4434;SDS011;46552;52.150;8.428;2023-07-24T01:08:08;10.80;;;7.50;;
4434;SDS011;46552;52.150;8.428;2023-07-24T01:10:35;14.03;;;8.07;;
4434;SDS011;46552;52.150;8.428;2023-07-24T01:13:04;10.33;;;7.17;;
4434;SDS011;46552;52.150;8.428;2023-07-24T01:15:36;11.33;;;8.40;;
4434;SDS011;46552;52.150;8.428;2023-07-24T01:18:08;11.30;;;7.57;;
4434;SDS011;46552;52.150;8.428;2023-07-24T01:20:40;23.67;;;8.53;;
4434;SDS011;46552;52.150;8.428;2023-07-24T01:23:14;10.90;;;7.63;;
4434;SDS011;46552;52.150;8.428;2023-07-24T01:25:56;11.90;;;7.20;;
4434;SDS011;46552;52.150;8.428;2023-07-24T01:28:23;14.40;;;8.57;;
4434;SDS011;46552;52.150;8.428;2023-07-24T01:30:51;10.97;;;6.60;;
4434;SDS011;46552;52.150;8.428;2023-07-24T01:33:18;15.17;;;8.67;;
4434;SDS011;46552;52.150;8.428;2023-07-24T01:35:48;12.30;;;7.60;;
4434;SDS011;46552;52.150;8.428;2023-07-24T01:38:17;15.27;;;7.43;;
4434;SDS011;46552;52.150;8.428;2023-07-24T01:40:44;8.80;;;6.60;;
4434;SDS011;46552;52.150;8.428;2023-07-24T01:43:13;10.27;;;5.70;;
4434;SDS011;46552;52.150;8.428;2023-07-24T01:45:41;12.43;;;6.43;;
4434;SDS011;46552;52.150;8.428;2023-07-24T01:48:08;29.57;;;6.70;;
4434;SDS011;46552;52.150;8.428;2023-07-24T01:50:35;9.87;;;5.80;;
4434;SDS011;46552;52.150;8.428;2023-07-24T01:53:03;11.07;;;5.90;;
4434;SDS011;46552;52.150;8.428;2023-07-24T01:55:30;12.33;;;6.50;;
4434;SDS011;46552;52.150;8.428;2023-07-24T01:57:57;10.17;;;5.90;;
4434;SDS011;46552;52.150;8.428;2023-07-24T02:00:26;13.90;;;6.10;;
4434;SDS011;46552;52.150;8.428;2023-07-24T02:02:54;11.77;;;6.07;;
4434;SDS011;46552;52.150;8.428;2023-07-24T02:05:21;20.90;;;6.70;;
4434;SDS011;46552;52.150;8.428;2023-07-24T02:07:48;10.37;;;6.83;;
4434;SDS011;46552;52.150;8.428;2023-07-24T02:10:16;8.53;;;5.30;;
4434;SDS011;46552;52.150;8.428;2023-07-24T02:12:43;9.60;;;5.17;;
4434;SDS011;46552;52.150;8.428;2023-07-24T02:15:10;12.37;;;6.10;;
4434;SDS011;46552;52.150;8.428;2023-07-24T02:17:39;15.00;;;5.57;;
4434;SDS011;46552;52.150;8.428;2023-07-24T02:20:07;10.00;;;5.17;;
4434;SDS011;46552;52.150;8.428;2023-07-24T02:22:35;13.40;;;5.40;;
4434;SDS011;46552;52.150;8.428;2023-07-24T02:25:02;12.37;;;5.30;;
4434;SDS011;46552;52.150;8.428;2023-07-24T02:27:30;13.30;;;5.43;;
4434;SDS011;46552;52.150;8.428;2023-07-24T02:29:59;16.50;;;5.83;;
4434;SDS011;46552;52.150;8.428;2023-07-24T02:32:27;12.27;;;5.70;;
4434;SDS011;46552;52.150;8.428;2023-07-24T02:34:56;11.30;;;5.27;;
4434;SDS011;46552;52.150;8.428;2023-07-24T02:37:23;8.00;;;4.70;;
4434;SDS011;46552;52.150;8.428;2023-07-24T02:39:51;12.97;;;6.20;;
4434;SDS011;46552;52.150;8.428;2023-07-24T02:42:18;10.37;;;5.10;;
4434;SDS011;46552;52.150;8.428;2023-07-24T02:44:45;9.63;;;4.73;;
4434;SDS011;46552;52.150;8.428;2023-07-24T02:47:13;10.13;;;3.97;;
4434;SDS011;46552;52.150;8.428;2023-07-24T02:49:40;7.90;;;4.13;;
4434;SDS011;46552;52.150;8.428;2023-07-24T02:52:09;8.93;;;4.40;;
4434;SDS011;46552;52.150;8.428;2023-07-24T02:54:36;13.93;;;5.50;;
4434;SDS011;46552;52.150;8.428;2023-07-24T02:57:03;11.13;;;5.17;;
4434;SDS011;46552;52.150;8.428;2023-07-24T02:59:31;12.80;;;5.33;;
4434;SDS011;46552;52.150;8.428;2023-07-24T03:01:59;11.53;;;4.50;;
4434;SDS011;46552;52.150;8.428;2023-07-24T03:04:27;7.47;;;4.53;;
4434;SDS011;46552;52.150;8.428;2023-07-24T03:06:54;8.70;;;4.43;;
4434;SDS011;46552;52.150;8.428;2023-07-24T03:09:22;10.37;;;5.57;;
4434;SDS011;46552;52.150;8.428;2023-07-24T03:11:49;12.57;;;4.10;;
4434;SDS011;46552;52.150;8.428;2023-07-24T03:14:17;7.60;;;4.60;;
4434;SDS011;46552;52.150;8.428;2023-07-24T03:16:44;10.60;;;5.57;;
4434;SDS011;46552;52.150;8.428;2023-07-24T03:19:11;10.70;;;4.80;;
4434;SDS011;46552;52.150;8.428;2023-07-24T03:21:38;16.13;;;4.63;;
4434;SDS011;46552;52.150;8.428;2023-07-24T03:24:06;12.90;;;5.47;;
4434;SDS011;46552;52.150;8.428;2023-07-24T03:26:35;9.40;;;4.47;;
4434;SDS011;46552;52.150;8.428;2023-07-24T03:29:02;11.37;;;4.50;;
4434;SDS011;46552;52.150;8.428;2023-07-24T03:31:29;11.30;;;4.70;;
4434;SDS011;46552;52.150;8.428;2023-07-24T03:33:56;8.93;;;5.37;;
4434;SDS011;46552;52.150;8.428;2023-07-24T03:36:24;10.97;;;5.30;;
4434;SDS011;46552;52.150;8.428;2023-07-24T03:38:51;9.43;;;4.63;;
4434;SDS011;46552;52.150;8.428;2023-07-24T03:41:18;13.63;;;5.33;;
4434;SDS011;46552;52.150;8.428;2023-07-24T03:43:47;8.73;;;4.90;;
4434;SDS011;46552;52.150;8.428;2023-07-24T03:46:15;11.17;;;4.63;;
4434;SDS011;46552;52.150;8.428;2023-07-24T03:48:42;10.30;;;4.50;;
4434;SDS011;46552;52.150;8.428;2023-07-24T03:51:09;8.70;;;4.67;;
4434;SDS011;46552;52.150;8.428;2023-07-24T03:53:37;7.83;;;4.90;;
4434;SDS011;46552;52.150;8.428;2023-07-24T03:56:04;14.33;;;5.00;;
4434;SDS011;46552;52.150;8.428;2023-07-24T03:58:31;15.10;;;4.50;;
4434;SDS011;46552;52.150;8.428;2023-07-24T04:01:01;14.63;;;4.57;;
4434;SDS011;46552;52.150;8.428;2023-07-24T04:03:28;11.50;;;5.33;;
4434;SDS011;46552;52.150;8.428;2023-07-24T04:05:56;13.50;;;4.93;;
4434;SDS011;46552;52.150;8.428;2023-07-24T04:08:24;14.30;;;4.80;;
4434;SDS011;46552;52.150;8.428;2023-07-24T04:10:51;8.93;;;4.83;;
4434;SDS011;46552;52.150;8.428;2023-07-24T04:13:21;18.70;;;5.00;;
4434;SDS011;46552;52.150;8.428;2023-07-24T04:15:48;6.00;;;4.10;;
4434;SDS011;46552;52.150;8.428;2023-07-24T04:18:17;13.00;;;4.90;;
4434;SDS011;46552;52.150;8.428;2023-07-24T04:20:46;9.03;;;4.00;;
4434;SDS011;46552;52.150;8.428;2023-07-24T04:23:14;10.17;;;5.70;;
4434;SDS011;46552;52.150;8.428;2023-07-24T04:25:42;7.80;;;3.87;;
4434;SDS011;46552;52.150;8.428;2023-07-24T04:28:09;11.17;;;4.10;;
4434;SDS011;46552;52.150;8.428;2023-07-24T04:30:37;11.73;;;4.77;;
4434;SDS011;46552;52.150;8.428;2023-07-24T04:33:04;13.13;;;5.50;;
4434;SDS011;46552;52.150;8.428;2023-07-24T04:35:33;34.00;;;5.33;;
4434;SDS011;46552;52.150;8.428;2023-07-24T04:38:00;10.77;;;4.43;;
4434;SDS011;46552;52.150;8.428;2023-07-24T04:40:27;8.03;;;4.80;;
4434;SDS011;46552;52.150;8.428;2023-07-24T04:42:54;13.93;;;5.10;;
4434;SDS011;46552;52.150;8.428;2023-07-24T04:45:21;9.83;;;5.10;;
4434;SDS011;46552;52.150;8.428;2023-07-24T04:47:49;10.30;;;5.33;;
4434;SDS011;46552;52.150;8.428;2023-07-24T04:50:16;10.40;;;3.90;;
4434;SDS011;46552;52.150;8.428;2023-07-24T04:52:45;13.27;;;4.63;;
4434;SDS011;46552;52.150;8.428;2023-07-24T04:55:12;12.93;;;5.47;;
4434;SDS011;46552;52.150;8.428;2023-07-24T04:57:39;8.67;;;4.83;;
4434;SDS011;46552;52.150;8.428;2023-07-24T05:00:07;13.70;;;4.77;;
4434;SDS011;46552;52.150;8.428;2023-07-24T05:02:35;15.83;;;4.97;;
4434;SDS011;46552;52.150;8.428;2023-07-24T05:05:02;10.63;;;5.17;;
4434;SDS011;46552;52.150;8.428;2023-07-24T05:07:30;10.73;;;4.90;;
4434;SDS011;46552;52.150;8.428;2023-07-24T05:09:59;9.63;;;4.60;;
4434;SDS011;46552;52.150;8.428;2023-07-24T05:12:27;8.97;;;4.60;;
4434;SDS011;46552;52.150;8.428;2023-07-24T05:14:53;11.00;;;5.60;;
4434;SDS011;46552;52.150;8.428;2023-07-24T05:17:21;14.20;;;4.97;;
4434;SDS011;46552;52.150;8.428;2023-07-24T05:19:48;7.77;;;4.50;;
4434;SDS011;46552;52.150;8.428;2023-07-24T05:22:15;10.43;;;4.60;;
4434;SDS011;46552;52.150;8.428;2023-07-24T05:24:43;12.97;;;6.67;;
4434;SDS011;46552;52.150;8.428;2023-07-24T05:27:12;13.43;;;4.67;;
4434;SDS011;46552;52.150;8.428;2023-07-24T05:29:41;13.43;;;6.70;;
4434;SDS011;46552;52.150;8.428;2023-07-24T05:32:08;11.60;;;5.00;;
4434;SDS011;46552;52.150;8.428;2023-07-24T05:34:35;16.70;;;6.53;;
4434;SDS011;46552;52.150;8.428;2023-07-24T05:37:03;11.53;;;5.40;;
4434;SDS011;46552;52.150;8.428;2023-07-24T05:39:32;10.00;;;5.50;;
4434;SDS011;46552;52.150;8.428;2023-07-24T05:41:59;9.57;;;5.90;;
4434;SDS011;46552;52.150;8.428;2023-07-24T05:44:29;8.53;;;4.90;;
4434;SDS011;46552;52.150;8.428;2023-07-24T05:46:58;8.93;;;4.67;;
4434;SDS011;46552;52.150;8.428;2023-07-24T05:49:25;7.83;;;4.50;;
4434;SDS011;46552;52.150;8.428;2023-07-24T05:51:52;9.47;;;5.40;;
4434;SDS011;46552;52.150;8.428;2023-07-24T05:54:19;15.23;;;5.93;;
4434;SDS011;46552;52.150;8.428;2023-07-24T05:56:47;7.37;;;4.67;;
4434;SDS011;46552;52.150;8.428;2023-07-24T05:59:15;7.10;;;4.70;;
4434;SDS011;46552;52.150;8.428;2023-07-24T06:01:45;10.23;;;4.00;;
4434;SDS011;46552;52.150;8.428;2023-07-24T06:04:12;7.30;;;3.60;;
4434;SDS011;46552;52.150;8.428;2023-07-24T06:06:40;5.13;;;2.83;;
4434;SDS011;46552;52.150;8.428;2023-07-24T06:09:07;4.10;;;2.20;;
4434;SDS011;46552;52.150;8.428;2023-07-24T06:11:34;7.10;;;2.57;;
4434;SDS011;46552;52.150;8.428;2023-07-24T06:14:02;5.07;;;1.83;;
4434;SDS011;46552;52.150;8.428;2023-07-24T06:16:29;10.87;;;2.60;;
4434;SDS011;46552;52.150;8.428;2023-07-24T06:18:58;5.50;;;2.70;;
4434;SDS011;46552;52.150;8.428;2023-07-24T06:21:25;3.50;;;1.70;;
4434;SDS011;46552;52.150;8.428;2023-07-24T06:23:52;4.73;;;1.93;;
4434;SDS011;46552;52.150;8.428;2023-07-24T06:26:19;6.60;;;1.17;;
4434;SDS011;46552;52.150;8.428;2023-07-24T06:28:47;4.93;;;2.17;;
4434;SDS011;46552;52.150;8.428;2023-07-24T06:31:15;3.33;;;1.80;;
4434;SDS011;46552;52.150;8.428;2023-07-24T06:33:42;3.00;;;1.43;;
4434;SDS011;46552;52.150;8.428;2023-07-24T06:36:12;8.70;;;2.67;;
4434;SDS011;46552;52.150;8.428;2023-07-24T06:38:39;4.90;;;2.50;;
4434;SDS011;46552;52.150;8.428;2023-07-24T06:41:09;10.90;;;3.50;;
4434;SDS011;46552;52.150;8.428;2023-07-24T06:43:37;7.20;;;4.07;;
4434;SDS011;46552;52.150;8.428;2023-07-24T06:46:05;10.87;;;5.53;;
4434;SDS011;46552;52.150;8.428;2023-07-24T06:48:32;9.60;;;4.60;;
4434;SDS011;46552;52.150;8.428;2023-07-24T06:50:59;8.73;;;5.60;;
4434;SDS011;46552;52.150;8.428;2023-07-24T06:53:28;8.10;;;5.30;;
4434;SDS011;46552;52.150;8.428;2023-07-24T06:55:55;8.40;;;4.20;;
4434;SDS011;46552;52.150;8.428;2023-07-24T06:58:22;7.50;;;4.60;;
4434;SDS011;46552;52.150;8.428;2023-07-24T07:00:50;7.37;;;4.70;;
4434;SDS011;46552;52.150;8.428;2023-07-24T07:03:17;8.40;;;4.80;;
4434;SDS011;46552;52.150;8.428;2023-07-24T07:05:44;9.67;;;5.13;;
4434;SDS011;46552;52.150;8.428;2023-07-24T07:08:12;8.43;;;5.07;;
4434;SDS011;46552;52.150;8.428;2023-07-24T07:10:41;11.00;;;5.53;;
4434;SDS011;46552;52.150;8.428;2023-07-24T07:13:08;10.87;;;6.80;;
4434;SDS011;46552;52.150;8.428;2023-07-24T07:15:35;15.20;;;7.53;;
4434;SDS011;46552;52.150;8.428;2023-07-24T07:18:03;9.37;;;7.47;;
4434;SDS011;46552;52.150;8.428;2023-07-24T07:20:30;12.17;;;8.03;;
4434;SDS011;46552;52.150;8.428;2023-07-24T07:22:57;12.73;;;8.17;;
4434;SDS011;46552;52.150;8.428;2023-07-24T07:25:25;11.77;;;8.03;;
4434;SDS011;46552;52.150;8.428;2023-07-24T07:27:53;14.93;;;8.60;;
4434;SDS011;46552;52.150;8.428;2023-07-24T07:30:20;14.90;;;8.03;;
4434;SDS011;46552;52.150;8.428;2023-07-24T07:32:48;18.07;;;8.43;;
4434;SDS011;46552;52.150;8.428;2023-07-24T07:35:15;13.77;;;8.23;;
4434;SDS011;46552;52.150;8.428;2023-07-24T07:37:43;13.00;;;8.53;;
4434;SDS011;46552;52.150;8.428;2023-07-24T07:40:10;11.23;;;8.30;;
4434;SDS011;46552;52.150;8.428;2023-07-24T07:42:39;11.70;;;8.60;;
4434;SDS011;46552;52.150;8.428;2023-07-24T07:45:08;12.70;;;8.23;;
4434;SDS011;46552;52.150;8.428;2023-07-24T07:47:36;12.37;;;8.60;;
4434;SDS011;46552;52.150;8.428;2023-07-24T07:50:03;11.17;;;8.10;;
4434;SDS011;46552;52.150;8.428;2023-07-24T07:52:31;13.70;;;8.63;;
4434;SDS011;46552;52.150;8.428;2023-07-24T07:54:58;13.90;;;8.97;;
4434;SDS011;46552;52.150;8.428;2023-07-24T07:57:25;14.20;;;8.57;;
4434;SDS011;46552;52.150;8.428;2023-07-24T07:59:52;11.57;;;7.60;;
4434;SDS011;46552;52.150;8.428;2023-07-24T08:02:21;12.03;;;8.40;;
4434;SDS011;46552;52.150;8.428;2023-07-24T08:04:48;11.90;;;7.90;;
4434;SDS011;46552;52.150;8.428;2023-07-24T08:07:15;10.73;;;7.90;;
4434;SDS011;46552;52.150;8.428;2023-07-24T08:09:45;14.77;;;8.97;;
4434;SDS011;46552;52.150;8.428;2023-07-24T08:12:14;10.77;;;9.20;;
4434;SDS011;46552;52.150;8.428;2023-07-24T08:14:41;13.80;;;10.97;;
4434;SDS011;46552;52.150;8.428;2023-07-24T08:17:08;15.80;;;11.23;;
4434;SDS011;46552;52.150;8.428;2023-07-24T08:19:37;17.97;;;10.40;;
4434;SDS011;46552;52.150;8.428;2023-07-24T08:22:04;14.20;;;10.07;;
4434;SDS011;46552;52.150;8.428;2023-07-24T08:24:33;13.43;;;10.80;;
4434;SDS011;46552;52.150;8.428;2023-07-24T08:27:01;16.27;;;8.93;;
4434;SDS011;46552;52.150;8.428;2023-07-24T08:29:29;15.60;;;11.20;;
4434;SDS011;46552;52.150;8.428;2023-07-24T08:31:56;12.73;;;10.93;;
4434;SDS011;46552;52.150;8.428;2023-07-24T08:34:23;22.40;;;10.90;;
4434;SDS011;46552;52.150;8.428;2023-07-24T08:36:53;14.43;;;9.80;;
4434;SDS011;46552;52.150;8.428;2023-07-24T08:39:20;17.77;;;9.87;;
4434;SDS011;46552;52.150;8.428;2023-07-24T08:41:47;15.30;;;10.30;;
4434;SDS011;46552;52.150;8.428;2023-07-24T08:44:14;16.27;;;10.87;;
4434;SDS011;46552;52.150;8.428;2023-07-24T08:46:42;15.37;;;9.80;;
4434;SDS011;46552;52.150;8.428;2023-07-24T08:49:11;13.00;;;9.47;;
4434;SDS011;46552;52.150;8.428;2023-07-24T08:51:39;12.70;;;9.50;;
4434;SDS011;46552;52.150;8.428;2023-07-24T08:54:08;13.67;;;10.17;;
4434;SDS011;46552;52.150;8.428;2023-07-24T08:56:36;13.63;;;10.07;;
4434;SDS011;46552;52.150;8.428;2023-07-24T08:59:05;13.87;;;9.67;;
4434;SDS011;46552;52.150;8.428;2023-07-24T09:01:32;17.40;;;9.70;;
4434;SDS011;46552;52.150;8.428;2023-07-24T09:04:00;17.67;;;11.03;;
4434;SDS011;46552;52.150;8.428;2023-07-24T09:06:28;16.93;;;10.73;;
4434;SDS011;46552;52.150;8.428;2023-07-24T09:08:55;14.63;;;10.60;;
4434;SDS011;46552;52.150;8.428;2023-07-24T09:11:24;14.37;;;10.10;;
4434;SDS011;46552;52.150;8.428;2023-07-24T09:13:51;13.60;;;9.63;;
4434;SDS011;46552;52.150;8.428;2023-07-24T09:16:22;15.70;;;10.40;;
4434;SDS011;46552;52.150;8.428;2023-07-24T09:18:50;16.87;;;9.93;;
4434;SDS011;46552;52.150;8.428;2023-07-24T09:21:26;13.70;;;9.90;;
4434;SDS011;46552;52.150;8.428;2023-07-24T09:23:55;13.47;;;10.90;;
4434;SDS011;46552;52.150;8.428;2023-07-24T09:26:22;15.20;;;9.80;;
4434;SDS011;46552;52.150;8.428;2023-07-24T09:28:52;15.03;;;10.30;;
4434;SDS011;46552;52.150;8.428;2023-07-24T09:31:19;13.80;;;10.27;;
4434;SDS011;46552;52.150;8.428;2023-07-24T09:33:46;13.13;;;9.07;;
4434;SDS011;46552;52.150;8.428;2023-07-24T09:36:13;17.03;;;10.00;;
4434;SDS011;46552;52.150;8.428;2023-07-24T09:38:41;14.30;;;8.10;;
4434;SDS011;46552;52.150;8.428;2023-07-24T09:41:08;10.60;;;7.57;;
4434;SDS011;46552;52.150;8.428;2023-07-24T09:43:38;11.97;;;7.83;;
4434;SDS011;46552;52.150;8.428;2023-07-24T09:46:05;9.83;;;6.90;;
4434;SDS011;46552;52.150;8.428;2023-07-24T09:48:34;12.27;;;6.90;;
4434;SDS011;46552;52.150;8.428;2023-07-24T09:51:03;13.63;;;7.33;;
4434;SDS011;46552;52.150;8.428;2023-07-24T09:53:32;10.60;;;7.37;;
4434;SDS011;46552;52.150;8.428;2023-07-24T09:56:05;9.83;;;6.27;;
4434;SDS011;46552;52.150;8.428;2023-07-24T09:58:34;9.30;;;5.73;;
4434;SDS011;46552;52.150;8.428;2023-07-24T10:01:04;7.07;;;5.40;;
4434;SDS011;46552;52.150;8.428;2023-07-24T10:03:35;7.57;;;4.93;;
4434;SDS011;46552;52.150;8.428;2023-07-24T10:06:05;6.27;;;4.67;;
4434;SDS011;46552;52.150;8.428;2023-07-24T10:08:33;7.67;;;3.70;;
4434;SDS011;46552;52.150;8.428;2023-07-24T10:11:01;5.70;;;3.30;;
4434;SDS011;46552;52.150;8.428;2023-07-24T10:13:28;11.93;;;3.57;;
4434;SDS011;46552;52.150;8.428;2023-07-24T10:15:56;4.00;;;2.67;;
4434;SDS011;46552;52.150;8.428;2023-07-24T10:18:27;4.63;;;2.77;;
4434;SDS011;46552;52.150;8.428;2023-07-24T10:21:02;3.40;;;2.20;;
4434;SDS011;46552;52.150;8.428;2023-07-24T10:23:33;4.40;;;2.90;;
4434;SDS011;46552;52.150;8.428;2023-07-24T10:26:02;5.83;;;3.20;;
4434;SDS011;46552;52.150;8.428;2023-07-24T10:28:31;3.63;;;2.47;;
4434;SDS011;46552;52.150;8.428;2023-07-24T10:31:00;5.73;;;2.83;;
4434;SDS011;46552;52.150;8.428;2023-07-24T10:33:30;3.80;;;2.50;;
4434;SDS011;46552;52.150;8.428;2023-07-24T10:36:05;4.20;;;2.30;;
4434;SDS011;46552;52.150;8.428;2023-07-24T10:38:35;3.90;;;2.20;;
4434;SDS011;46552;52.150;8.428;2023-07-24T10:41:03;3.70;;;2.20;;
4434;SDS011;46552;52.150;8.428;2023-07-24T10:43:40;4.47;;;2.27;;
4434;SDS011;46552;52.150;8.428;2023-07-24T10:46:09;3.63;;;2.40;;
4434;SDS011;46552;52.150;8.428;2023-07-24T10:48:39;5.33;;;2.40;;
4434;SDS011;46552;52.150;8.428;2023-07-24T10:51:09;5.30;;;2.20;;
4434;SDS011;46552;52.150;8.428;2023-07-24T10:53:40;5.93;;;2.60;;
4434;SDS011;46552;52.150;8.428;2023-07-24T10:56:09;3.87;;;2.20;;
4434;SDS011;46552;52.150;8.428;2023-07-24T10:58:37;3.50;;;2.20;;
4434;SDS011;46552;52.150;8.428;2023-07-24T11:01:04;4.30;;;2.00;;
4434;SDS011;46552;52.150;8.428;2023-07-24T11:03:32;3.30;;;2.27;;
4434;SDS011;46552;52.150;8.428;2023-07-24T11:06:00;4.60;;;2.17;;
4434;SDS011;46552;52.150;8.428;2023-07-24T11:08:29;5.20;;;2.40;;
4434;SDS011;46552;52.150;8.428;2023-07-24T11:10:58;4.17;;;2.10;;
4434;SDS011;46552;52.150;8.428;2023-07-24T11:13:27;6.07;;;2.23;;
4434;SDS011;46552;52.150;8.428;2023-07-24T11:15:55;4.47;;;2.00;;
4434;SDS011;46552;52.150;8.428;2023-07-24T11:18:22;3.83;;;2.07;;
4434;SDS011;46552;52.150;8.428;2023-07-24T11:20:52;4.30;;;2.30;;
4434;SDS011;46552;52.150;8.428;2023-07-24T11:23:22;5.60;;;2.40;;
4434;SDS011;46552;52.150;8.428;2023-07-24T11:25:50;3.20;;;2.17;;
4434;SDS011;46552;52.150;8.428;2023-07-24T11:28:19;9.00;;;2.70;;
4434;SDS011;46552;52.150;8.428;2023-07-24T11:30:46;3.60;;;2.10;;
4434;SDS011;46552;52.150;8.428;2023-07-24T11:33:15;4.03;;;2.57;;
4434;SDS011;46552;52.150;8.428;2023-07-24T11:35:44;4.47;;;2.80;;
4434;SDS011;46552;52.150;8.428;2023-07-24T11:38:12;5.47;;;3.53;;
4434;SDS011;46552;52.150;8.428;2023-07-24T11:40:41;4.40;;;3.10;;
4434;SDS011;46552;52.150;8.428;2023-07-24T11:43:15;4.60;;;2.50;;
4434;SDS011;46552;52.150;8.428;2023-07-24T11:45:43;4.57;;;2.60;;
4434;SDS011;46552;52.150;8.428;2023-07-24T11:48:12;5.30;;;3.07;;
4434;SDS011;46552;52.150;8.428;2023-07-24T11:50:42;5.30;;;1.80;;
4434;SDS011;46552;52.150;8.428;2023-07-24T11:53:18;4.20;;;2.67;;
4434;SDS011;46552;52.150;8.428;2023-07-24T11:55:50;4.70;;;2.57;;
4434;SDS011;46552;52.150;8.428;2023-07-24T11:58:19;4.20;;;2.93;;
4434;SDS011;46552;52.150;8.428;2023-07-24T12:00:46;5.83;;;3.53;;
4434;SDS011;46552;52.150;8.428;2023-07-24T12:03:18;8.37;;;3.00;;
4434;SDS011;46552;52.150;8.428;2023-07-24T12:05:46;5.27;;;3.10;;
4434;SDS011;46552;52.150;8.428;2023-07-24T12:08:15;8.47;;;4.00;;
4434;SDS011;46552;52.150;8.428;2023-07-24T12:10:44;6.00;;;3.40;;
4434;SDS011;46552;52.150;8.428;2023-07-24T12:13:14;5.97;;;3.40;;
4434;SDS011;46552;52.150;8.428;2023-07-24T12:15:41;7.77;;;4.73;;
4434;SDS011;46552;52.150;8.428;2023-07-24T12:18:08;12.60;;;5.73;;
4434;SDS011;46552;52.150;8.428;2023-07-24T12:20:35;9.37;;;6.70;;
4434;SDS011;46552;52.150;8.428;2023-07-24T12:23:03;8.37;;;6.07;;
4434;SDS011;46552;52.150;8.428;2023-07-24T12:25:30;8.23;;;6.53;;
4434;SDS011;46552;52.150;8.428;2023-07-24T12:27:57;9.80;;;6.93;;
4434;SDS011;46552;52.150;8.428;2023-07-24T12:30:27;13.70;;;7.50;;
4434;SDS011;46552;52.150;8.428;2023-07-24T12:32:54;11.53;;;8.13;;
4434;SDS011;46552;52.150;8.428;2023-07-24T12:35:22;9.70;;;7.10;;
4434;SDS011;46552;52.150;8.428;2023-07-24T12:37:49;11.20;;;7.83;;
4434;SDS011;46552;52.150;8.428;2023-07-24T12:40:16;8.97;;;7.90;;
4434;SDS011;46552;52.150;8.428;2023-07-24T12:42:43;11.30;;;8.70;;
4434;SDS011;46552;52.150;8.428;2023-07-24T12:45:10;10.50;;;8.50;;
4434;SDS011;46552;52.150;8.428;2023-07-24T12:47:39;10.57;;;8.93;;
4434;SDS011;46552;52.150;8.428;2023-07-24T12:50:06;12.37;;;8.57;;
4434;SDS011;46552;52.150;8.428;2023-07-24T12:52:34;12.23;;;8.50;;
4434;SDS011;46552;52.150;8.428;2023-07-24T12:55:01;12.20;;;8.20;;
4434;SDS011;46552;52.150;8.428;2023-07-24T12:57:28;13.33;;;8.87;;
4434;SDS011;46552;52.150;8.428;2023-07-24T12:59:58;15.70;;;7.30;;
4434;SDS011;46552;52.150;8.428;2023-07-24T13:02:25;11.00;;;7.50;;
4434;SDS011;46552;52.150;8.428;2023-07-24T13:04:54;11.23;;;7.40;;
4434;SDS011;46552;52.150;8.428;2023-07-24T13:07:22;8.73;;;7.70;;
4434;SDS011;46552;52.150;8.428;2023-07-24T13:09:49;10.20;;;8.00;;
4434;SDS011;46552;52.150;8.428;2023-07-24T13:12:16;11.70;;;7.57;;
4434;SDS011;46552;52.150;8.428;2023-07-24T13:14:44;8.30;;;6.47;;
4434;SDS011;46552;52.150;8.428;2023-07-24T13:17:12;11.53;;;7.30;;
4434;SDS011;46552;52.150;8.428;2023-07-24T13:19:39;9.63;;;6.57;;
4434;SDS011;46552;52.150;8.428;2023-07-24T13:22:08;9.00;;;6.40;;
4434;SDS011;46552;52.150;8.428;2023-07-24T13:24:36;9.83;;;6.97;;
4434;SDS011;46552;52.150;8.428;2023-07-24T13:27:03;10.03;;;6.57;;
4434;SDS011;46552;52.150;8.428;2023-07-24T13:29:30;12.10;;;6.90;;
4434;SDS011;46552;52.150;8.428;2023-07-24T13:31:57;8.80;;;6.90;;
4434;SDS011;46552;52.150;8.428;2023-07-24T13:34:25;9.13;;;5.90;;
4434;SDS011;46552;52.150;8.428;2023-07-24T13:36:52;13.77;;;7.97;;
4434;SDS011;46552;52.150;8.428;2023-07-24T13:39:21;13.50;;;7.20;;
4434;SDS011;46552;52.150;8.428;2023-07-24T13:41:48;8.10;;;6.07;;
4434;SDS011;46552;52.150;8.428;2023-07-24T13:44:15;8.27;;;5.40;;
4434;SDS011;46552;52.150;8.428;2023-07-24T13:46:43;12.70;;;5.07;;
4434;SDS011;46552;52.150;8.428;2023-07-24T13:49:11;10.77;;;5.10;;
4434;SDS011;46552;52.150;8.428;2023-07-24T13:51:39;9.20;;;4.20;;
4434;SDS011;46552;52.150;8.428;2023-07-24T13:54:06;10.27;;;4.80;;
4434;SDS011;46552;52.150;8.428;2023-07-24T13:56:34;9.33;;;4.90;;
4434;SDS011;46552;52.150;8.428;2023-07-24T13:59:03;6.63;;;4.30;;
4434;SDS011;46552;52.150;8.428;2023-07-24T14:01:30;7.83;;;4.93;;
4434;SDS011;46552;52.150;8.428;2023-07-24T14:03:58;6.23;;;4.17;;
4434;SDS011;46552;52.150;8.428;2023-07-24T14:06:25;7.77;;;4.53;;
4434;SDS011;46552;52.150;8.428;2023-07-24T14:08:53;9.23;;;4.70;;
4434;SDS011;46552;52.150;8.428;2023-07-24T14:11:21;11.10;;;5.13;;
4434;SDS011;46552;52.150;8.428;2023-07-24T14:13:51;8.60;;;4.87;;
4434;SDS011;46552;52.150;8.428;2023-07-24T14:16:18;7.97;;;5.20;;
4434;SDS011;46552;52.150;8.428;2023-07-24T14:18:46;10.17;;;5.30;;
4434;SDS011;46552;52.150;8.428;2023-07-24T14:21:13;7.47;;;5.03;;
4434;SDS011;46552;52.150;8.428;2023-07-24T14:23:40;9.83;;;5.40;;
4434;SDS011;46552;52.150;8.428;2023-07-24T14:26:08;9.77;;;4.43;;
4434;SDS011;46552;52.150;8.428;2023-07-24T14:28:35;7.73;;;4.50;;
4434;SDS011;46552;52.150;8.428;2023-07-24T14:31:05;6.70;;;4.40;;
4434;SDS011;46552;52.150;8.428;2023-07-24T14:33:33;5.70;;;3.50;;
4434;SDS011;46552;52.150;8.428;2023-07-24T14:36:00;7.23;;;4.00;;
4434;SDS011;46552;52.150;8.428;2023-07-24T14:38:28;7.07;;;4.43;;
4434;SDS011;46552;52.150;8.428;2023-07-24T14:40:55;8.80;;;4.10;;
4434;SDS011;46552;52.150;8.428;2023-07-24T14:43:22;5.10;;;2.57;;
4434;SDS011;46552;52.150;8.428;2023-07-24T14:45:49;5.13;;;2.90;;
4434;SDS011;46552;52.150;8.428;2023-07-24T14:48:18;5.43;;;3.10;;
4434;SDS011;46552;52.150;8.428;2023-07-24T14:50:46;5.00;;;2.93;;
4434;SDS011;46552;52.150;8.428;2023-07-24T14:53:13;5.10;;;3.30;;
4434;SDS011;46552;52.150;8.428;2023-07-24T14:55:40;5.23;;;3.30;;
4434;SDS011;46552;52.150;8.428;2023-07-24T14:58:08;7.10;;;3.37;;